Time;durP1;ratioP1;P1;durP2;ratioP2;P2;SDS_P1;SDS_P2;PMS_P1;PMS_P2;Temp;Humidity;BMP_temperature;BMP_pressure;BME280_temperature;BME280_humidity;BME280_pressure;Samples;Min_cycle;Max_cycle;Signal;HPM_P1;HPM_P2
2022/03/19 00:00:04;;;;;;;46.40;17.17;;;1.60;52.10;;;1.23;43.04;96941.34;5035188;28;20487;-57
2022/03/19 00:02:32;;;;;;;31.67;16.93;;;1.60;52.10;;;1.22;43.01;96939.63;5026865;28;20488;-57
2022/03/19 00:05:00;;;;;;;27.77;15.20;;;1.60;52.10;;;1.20;43.70;96937.06;5029901;28;20471;-56
2022/03/19 00:07:28;;;;;;;36.47;16.67;;;1.60;52.20;;;1.19;43.50;96935.38;5032312;28;20472;-57
2022/03/19 00:09:55;;;;;;;35.43;17.80;;;1.50;52.30;;;1.19;43.99;96939.69;5030247;28;20851;-56
2022/03/19 00:12:23;;;;;;;32.13;15.40;;;1.50;52.70;;;1.17;44.44;96934.53;5036280;28;20469;-56
2022/03/19 00:14:50;;;;;;;31.40;15.70;;;1.50;52.70;;;1.15;43.20;96941.50;5029636;28;20497;-57
2022/03/19 00:17:17;;;;;;;32.13;15.43;;;1.50;52.70;;;1.12;43.75;96933.78;5031484;28;20546;-56
2022/03/19 00:19:45;;;;;;;38.00;17.60;;;1.50;52.90;;;1.12;44.03;96933.78;5036083;28;20502;-56
2022/03/19 00:22:13;;;;;;;30.43;15.10;;;1.50;53.30;;;1.11;44.50;96926.03;5033673;28;20471;-55
2022/03/19 00:24:41;;;;;;;25.90;14.63;;;1.40;53.30;;;1.09;44.23;96930.41;5023587;28;20459;-54
2022/03/19 00:27:08;;;;;;;30.03;14.17;;;1.40;53.10;;;1.08;43.84;96929.53;5028436;28;20452;-55
2022/03/19 00:29:35;;;;;;;27.00;15.13;;;1.40;53.10;;;1.06;43.66;96929.56;5033862;28;20468;-56
2022/03/19 00:32:03;;;;;;;29.33;15.43;;;1.40;53.40;;;1.06;44.47;96929.56;5035007;28;20456;-56
2022/03/19 00:34:31;;;;;;;29.93;17.20;;;1.40;53.60;;;1.05;43.74;96927.00;5028340;28;20519;-57
2022/03/19 00:36:58;;;;;;;27.00;14.17;;;1.40;53.40;;;1.04;44.43;96922.72;5024861;28;20535;-56
2022/03/19 00:39:27;;;;;;;40.47;16.90;;;1.40;53.50;;;1.05;44.59;96932.19;5034329;28;20484;-55
2022/03/19 00:41:54;;;;;;;49.03;21.07;;;1.40;53.70;;;1.04;45.29;96922.72;5034974;28;20460;-57
2022/03/19 00:44:21;;;;;;;43.37;17.67;;;1.40;53.90;;;1.01;44.07;96923.63;5034402;28;20480;-56
2022/03/19 00:46:49;;;;;;;34.97;16.37;;;1.40;53.90;;;1.00;44.98;96919.31;5029004;28;20465;-59
2022/03/19 00:49:16;;;;;;;38.73;16.43;;;1.40;53.80;;;1.00;45.15;96926.25;5028080;28;20480;-58
2022/03/19 00:51:43;;;;;;;30.47;15.47;;;1.30;53.80;;;0.98;44.55;96925.44;5031837;28;20457;-57
2022/03/19 00:54:12;;;;;;;31.20;15.80;;;1.30;54.10;;;0.95;45.06;96928.09;5032584;28;20523;-56
2022/03/19 00:56:42;;;;;;;27.37;14.70;;;1.30;54.30;;;0.91;44.74;96931.59;5018059;28;20571;-54
2022/03/19 00:59:11;;;;;;;33.80;15.87;;;1.30;54.40;;;0.88;45.83;96933.38;5033562;28;20527;-57
2022/03/19 01:01:39;;;;;;;31.37;14.93;;;1.20;54.40;;;0.87;44.95;96933.41;5032997;28;20452;-58
2022/03/19 01:04:07;;;;;;;31.17;15.43;;;1.20;54.40;;;0.85;44.78;96929.97;5023305;28;20468;-57
2022/03/19 01:06:34;;;;;;;28.23;15.50;;;1.20;54.60;;;0.82;45.66;96935.22;5029925;28;20449;-57
2022/03/19 01:09:01;;;;;;;31.37;15.10;;;1.20;54.60;;;0.81;45.09;96928.34;5033076;28;20511;-55
2022/03/19 01:11:29;;;;;;;31.20;14.73;;;1.10;54.40;;;0.78;45.12;96924.06;5038425;28;20788;-54
2022/03/19 01:13:57;;;;;;;39.90;17.13;;;1.10;54.60;;;0.75;44.92;96924.13;5041598;28;20546;-57
2022/03/19 01:16:26;;;;;;;43.67;18.30;;;1.10;54.70;;;0.75;44.85;96928.47;5025294;28;20461;-56
2022/03/19 01:18:54;;;;;;;29.80;13.97;;;1.10;54.80;;;0.72;45.36;96929.38;5030602;28;20488;-55
2022/03/19 01:21:21;;;;;;;21.97;13.10;;;1.10;54.80;;;0.71;45.81;96923.34;5038762;28;20451;-54
2022/03/19 01:23:49;;;;;;;26.03;14.40;;;1.00;54.80;;;0.69;45.22;96919.91;5041719;28;21019;-57
2022/03/19 01:26:16;;;;;;;33.30;16.70;;;1.10;55.20;;;0.68;45.71;96920.81;5038931;28;20884;-56
2022/03/19 01:28:43;;;;;;;29.30;13.73;;;1.00;55.70;;;0.66;45.87;96919.97;5031254;28;20480;-56
2022/03/19 01:31:12;;;;;;;23.93;12.03;;;1.00;56.10;;;0.65;45.63;96917.41;5034180;28;20973;-55
2022/03/19 01:33:40;;;;;;;27.73;12.83;;;1.00;55.40;;;0.60;45.81;96914.06;5030683;28;20481;-57
2022/03/19 01:36:07;;;;;;;21.50;11.40;;;1.00;55.50;;;0.58;46.31;96910.66;5032910;28;20592;-56
2022/03/19 01:38:35;;;;;;;24.70;12.17;;;0.90;56.00;;;0.54;45.75;96917.59;5033434;28;20489;-56
2022/03/19 01:41:02;;;;;;;21.93;11.20;;;0.90;55.60;;;0.51;45.45;96909.91;5033015;28;20487;-57
2022/03/19 01:43:29;;;;;;;18.10;9.40;;;0.90;55.50;;;0.50;45.45;96919.41;5035674;28;20971;-54
2022/03/19 01:45:56;;;;;;;23.23;10.90;;;0.90;55.40;;;0.50;45.60;96921.16;5041126;28;20464;-56
2022/03/19 01:48:25;;;;;;;29.53;12.20;;;0.80;55.60;;;0.49;46.34;96917.69;5028437;28;20480;-56
2022/03/19 01:50:52;;;;;;;24.53;10.80;;;0.90;56.00;;;0.47;46.63;96911.69;5032830;28;20813;-56
2022/03/19 01:53:20;;;;;;;22.40;11.00;;;0.80;56.40;;;0.45;46.98;96920.34;5037612;28;20965;-56
2022/03/19 01:55:47;;;;;;;28.20;13.87;;;0.80;56.50;;;0.42;46.58;96915.25;5041577;28;20492;-56
2022/03/19 01:58:14;;;;;;;26.47;13.27;;;0.80;56.70;;;0.41;46.64;96913.56;5026975;28;21169;-55
2022/03/19 02:00:42;;;;;;;28.57;15.80;;;0.80;56.80;;;0.38;46.30;96908.44;5035312;28;20475;-58
2022/03/19 02:03:09;;;;;;;31.70;14.70;;;0.70;57.00;;;0.35;47.33;96901.56;5032259;28;20479;-56
2022/03/19 02:05:38;;;;;;;29.50;14.90;;;0.70;57.40;;;0.32;47.11;96905.03;5035814;28;20474;-57
2022/03/19 02:08:06;;;;;;;33.33;15.50;;;0.70;57.30;;;0.31;46.85;96902.47;5036961;28;20552;-56
2022/03/19 02:10:34;;;;;;;36.27;18.30;;;0.70;57.60;;;0.27;47.05;96896.53;5030630;28;20462;-56
2022/03/19 02:13:01;;;;;;;36.47;18.40;;;0.70;57.60;;;0.23;47.42;96900.03;5031244;28;20555;-55
2022/03/19 02:15:29;;;;;;;37.73;17.27;;;0.60;57.80;;;0.20;47.17;96897.50;5036397;28;20519;-55
2022/03/19 02:17:56;;;;;;;31.37;15.97;;;0.60;57.50;;;0.16;47.02;96899.28;5036485;28;21115;-56
2022/03/19 02:20:23;;;;;;;31.63;14.67;;;0.60;57.70;;;0.10;47.24;96894.22;5029726;28;21131;-56
2022/03/19 02:25:47;;;;;;;25.47;13.00;;;0.40;57.60;;;-0.04;46.92;96891.88;5036625;28;20567;-56
2022/03/19 02:28:15;;;;;;;25.23;13.47;;;0.40;57.60;;;-0.10;47.04;96897.13;5026346;28;20574;-57
2022/03/19 02:30:42;;;;;;;26.23;14.33;;;0.30;57.50;;;-0.14;46.82;96897.22;5031057;28;21153;-56
2022/03/19 02:33:10;;;;;;;25.60;14.60;;;0.30;57.60;;;-0.20;47.28;96895.59;5034047;28;20481;-56
2022/03/19 02:35:37;;;;;;;24.57;13.90;;;0.20;57.80;;;-0.26;47.28;96896.53;5038345;28;20497;-56
2022/03/19 02:38:06;;;;;;;27.23;13.67;;;0.10;57.70;;;-0.31;47.38;96894.88;5036816;28;20480;-56
2022/03/19 02:40:33;;;;;;;22.20;12.97;;;0.10;58.00;;;-0.38;47.67;96892.41;5029047;28;20927;-55
2022/03/19 02:43:00;;;;;;;27.07;13.83;;;0.00;58.00;;;-0.46;47.28;96904.59;5030073;28;20492;-55
2022/03/19 02:45:28;;;;;;;25.50;13.30;;;0.00;58.00;;;-0.51;47.89;96903.81;5036796;28;20471;-56
2022/03/19 02:47:58;;;;;;;32.23;13.73;;;-0.10;58.50;;;-0.58;47.83;96908.19;5036252;28;20803;-58
2022/03/19 02:50:26;;;;;;;24.13;12.80;;;-0.10;58.60;;;-0.63;47.69;96909.16;5028862;28;20436;-56
2022/03/19 02:52:53;;;;;;;27.37;14.13;;;-0.20;58.60;;;-0.67;47.67;96912.66;5033052;28;20476;-56
2022/03/19 02:55:22;;;;;;;31.40;13.90;;;-0.20;58.90;;;-0.70;47.99;96915.28;5033833;28;21440;-56
2022/03/19 02:57:49;;;;;;;26.17;12.50;;;-0.30;58.90;;;-0.74;47.72;96909.31;5028679;28;21706;-56
2022/03/19 03:00:17;;;;;;;24.83;12.83;;;-0.30;59.00;;;-0.75;47.83;96917.91;5034178;28;20874;-56
2022/03/19 03:02:44;;;;;;;30.70;15.13;;;-0.30;59.10;;;-0.76;48.16;96911.03;5018439;28;20485;-56
2022/03/19 03:05:13;;;;;;;24.20;13.47;;;-0.40;59.30;;;-0.78;48.19;96908.47;5030418;28;20983;-57
2022/03/19 03:07:41;;;;;;;19.47;11.30;;;-0.40;59.30;;;-0.79;47.66;96911.94;5033373;28;20512;-54
2022/03/19 03:10:09;;;;;;;19.90;11.17;;;-0.40;58.90;;;-0.80;47.37;96915.38;5030214;28;20464;-56
2022/03/19 03:12:38;;;;;;;21.73;12.47;;;-0.40;58.90;;;-0.79;47.54;96914.53;5028961;28;20479;-57
2022/03/19 03:15:06;;;;;;;32.57;14.90;;;-0.40;58.80;;;-0.79;47.71;96916.22;5029199;28;21159;-58
2022/03/19 03:17:36;;;;;;;25.10;12.90;;;-0.40;58.70;;;-0.79;47.62;96911.06;5036345;28;20476;-55
2022/03/19 03:20:05;;;;;;;23.30;13.37;;;-0.40;58.80;;;-0.81;48.16;96905.91;5039111;28;20471;-57
2022/03/19 03:22:33;;;;;;;21.03;11.23;;;-0.40;59.00;;;-0.81;47.66;96912.81;5029091;28;20484;-56
2022/03/19 03:25:00;;;;;;;29.37;13.27;;;-0.40;58.90;;;-0.83;47.91;96906.84;5032630;28;20448;-55
2022/03/19 03:27:27;;;;;;;28.60;12.43;;;-0.40;59.00;;;-0.84;48.04;96905.13;5034354;28;21197;-55
2022/03/19 03:29:56;;;;;;;28.60;12.07;;;-0.40;59.10;;;-0.86;47.85;96902.56;5039108;28;20471;-55
2022/03/19 03:32:23;;;;;;;24.23;11.33;;;-0.40;59.30;;;-0.86;48.04;96901.72;5029952;28;20479;-57
2022/03/19 03:34:51;;;;;;;24.23;14.20;;;-0.40;59.30;;;-0.87;48.19;96903.41;5026929;28;20493;-56
2022/03/19 03:37:18;;;;;;;25.17;14.17;;;-0.50;59.20;;;-0.88;48.12;96901.72;5032136;28;20468;-57
2022/03/19 03:39:46;;;;;;;28.83;13.13;;;-0.40;59.50;;;-0.91;48.48;96904.34;5036668;28;20547;-56
2022/03/19 03:42:14;;;;;;;30.13;13.30;;;-0.50;60.00;;;-0.94;48.27;96904.41;5026255;28;20448;-55
2022/03/19 03:44:42;;;;;;;24.30;13.33;;;-0.50;59.80;;;-0.96;48.33;96901.81;5030823;28;20460;-56
2022/03/19 03:47:11;;;;;;;27.03;13.90;;;-0.50;60.00;;;-0.97;48.61;96902.69;5032315;28;20517;-56
2022/03/19 03:49:38;;;;;;;36.30;14.47;;;-0.50;60.10;;;-0.96;48.87;96900.94;5037439;28;20452;-55
2022/03/19 03:52:07;;;;;;;25.00;14.00;;;-0.60;60.50;;;-0.95;48.84;96903.53;5037816;28;20456;-56
2022/03/19 03:54:34;;;;;;;25.67;12.77;;;-0.50;60.80;;;-0.93;48.42;96903.50;5029564;28;20445;-57
2022/03/19 03:57:02;;;;;;;28.13;13.70;;;-0.50;60.90;;;-0.92;49.00;96908.66;5033968;28;20836;-60
2022/03/19 03:59:30;;;;;;;34.00;14.53;;;-0.50;61.50;;;-0.90;49.20;96908.63;5029043;28;20487;-56
2022/03/19 04:01:57;;;;;;;29.47;15.80;;;-0.50;61.70;;;-0.88;49.14;96911.19;5028929;28;20467;-57
2022/03/19 04:04:26;;;;;;;26.13;13.73;;;-0.50;61.50;;;-0.86;49.08;96909.47;5026889;28;20541;-54
2022/03/19 04:06:53;;;;;;;30.00;13.60;;;-0.50;61.50;;;-0.85;48.95;96905.97;5035179;28;20888;-56
2022/03/19 04:09:21;;;;;;;32.23;14.00;;;-0.40;61.40;;;-0.83;49.79;96907.69;5029719;28;20471;-54
2022/03/19 04:11:48;;;;;;;33.10;15.40;;;-0.40;62.30;;;-0.83;49.71;96910.25;5030321;28;20460;-57
2022/03/19 04:14:15;;;;;;;27.07;13.60;;;-0.40;62.80;;;-0.82;49.60;96908.53;5027660;28;20574;-56
2022/03/19 04:16:43;;;;;;;32.70;14.37;;;-0.40;62.30;;;-0.83;49.58;96902.50;5030554;28;20488;-54
2022/03/19 04:19:10;;;;;;;27.23;12.83;;;-0.40;62.10;;;-0.78;49.45;96907.63;5031371;28;20475;-56
2022/03/19 04:21:39;;;;;;;32.77;13.97;;;-0.40;62.20;;;-0.77;49.82;96907.59;5033700;28;20550;-55
2022/03/19 04:24:07;;;;;;;28.10;14.40;;;-0.40;62.80;;;-0.76;49.80;96911.03;5031779;28;20857;-56
2022/03/19 04:26:34;;;;;;;26.90;13.27;;;-0.40;63.10;;;-0.76;49.75;96922.25;5024111;28;20451;-57
2022/03/19 04:29:02;;;;;;;27.20;13.47;;;-0.30;63.50;;;-0.77;50.03;96910.19;5032358;28;20467;-56
2022/03/19 04:31:29;;;;;;;32.13;14.67;;;-0.40;63.20;;;-0.77;49.90;96914.50;5038444;28;20835;-54
2022/03/19 04:33:56;;;;;;;30.87;14.93;;;-0.30;63.30;;;-0.77;49.57;96915.34;5031790;28;20492;-56
2022/03/19 04:36:33;;;;;;;36.17;16.80;;;-0.40;63.10;;;-0.78;49.64;96918.81;5026639;28;20618;-54
2022/03/19 04:39:03;;;;;;;34.47;15.70;;;-0.40;63.10;;;-0.79;49.80;96916.22;5033559;28;20487;-56
2022/03/19 04:41:31;;;;;;;31.37;16.50;;;-0.40;62.90;;;-0.80;49.69;96925.72;5030227;28;20488;-56
2022/03/19 04:43:58;;;;;;;45.03;16.67;;;-0.40;63.10;;;-0.81;49.80;96921.41;5033901;28;20491;-53
2022/03/19 04:46:25;;;;;;;33.77;16.47;;;-0.40;63.30;;;-0.80;49.45;96915.38;5032053;28;20491;-54
2022/03/19 04:48:56;;;;;;;34.87;16.17;;;-0.40;63.30;;;-0.79;50.11;96918.81;5037652;28;20479;-57
2022/03/19 04:51:30;;;;;;;29.70;16.23;;;-0.40;63.40;;;-0.80;49.43;96919.72;5034405;28;20511;-55
2022/03/19 04:53:57;;;;;;;30.30;16.23;;;-0.40;63.30;;;-0.81;50.00;96915.41;5041702;28;21015;-57
2022/03/19 04:56:27;;;;;;;30.17;16.07;;;-0.40;63.30;;;-0.81;49.70;96908.50;5022434;28;20496;-56
2022/03/19 04:58:58;;;;;;;42.90;17.27;;;-0.40;63.40;;;-0.80;50.06;96914.56;5033863;28;20988;-57
2022/03/19 05:01:26;;;;;;;34.83;16.80;;;-0.40;63.40;;;-0.79;49.74;96914.53;5036952;28;20459;-57
2022/03/19 05:03:53;;;;;;;32.53;15.50;;;-0.40;63.80;;;-0.77;49.73;96917.94;5035156;28;20478;-57
2022/03/19 05:06:21;;;;;;;29.73;15.80;;;-0.40;64.00;;;-0.75;50.01;96918.75;5033505;28;20464;-57
2022/03/19 05:11:12;;;;;;;31.90;14.10;;;-0.40;64.40;;;-0.73;49.90;96917.03;5028700;28;20619;-57
2022/03/19 05:11:36;;;;;;;27.83;16.07;;;-0.40;64.30;;;-0.69;49.93;96912.66;5033988;28;20443;-57
2022/03/19 05:14:04;;;;;;;34.90;16.47;;;-0.30;64.70;;;-0.64;50.06;96915.19;5040678;28;20486;-57
2022/03/19 05:16:32;;;;;;;26.10;15.80;;;-0.30;64.50;;;-0.57;49.99;96916.81;5032710;28;20579;-56
2022/03/19 05:18:59;;;;;;;36.43;16.30;;;-0.20;64.20;;;-0.48;49.87;96914.09;5033759;28;20483;-56
2022/03/19 05:21:27;;;;;;;28.63;16.03;;;-0.10;64.50;;;-0.41;49.62;96915.72;5033745;28;20522;-55
2022/03/19 05:23:54;;;;;;;59.80;22.60;;;0.00;64.00;;;-0.37;49.53;96917.38;5039881;28;20534;-57
2022/03/19 05:26:22;;;;;;;50.73;28.57;;;0.00;63.80;;;-0.33;49.24;96923.34;5036883;28;20962;-57
2022/03/19 05:28:50;;;;;;;41.57;22.40;;;0.10;63.20;;;-0.32;49.22;96924.22;5028995;28;20980;-58
2022/03/19 05:31:18;;;;;;;47.37;19.53;;;0.10;62.70;;;-0.32;49.11;96927.66;5032705;28;20465;-57
2022/03/19 05:36:33;;;;;;;26.07;15.73;;;0.20;62.50;;;-0.13;48.81;96927.38;5032249;28;20476;-56
2022/03/19 05:39:01;;;;;;;27.20;15.93;;;0.30;62.10;;;-0.10;48.43;96923.00;5027417;28;20507;-56
2022/03/19 05:41:30;;;;;;;26.67;14.07;;;0.30;61.30;;;-0.08;48.18;96918.69;5033392;28;20459;-56
2022/03/19 05:43:58;;;;;;;37.63;16.43;;;0.30;61.10;;;-0.04;48.40;96922.91;5032004;28;20483;-57
2022/03/19 05:46:26;;;;;;;40.77;15.73;;;0.30;61.20;;;-0.02;48.36;96930.63;5032318;28;20474;-56
2022/03/19 05:48:53;;;;;;;30.33;15.97;;;0.40;61.30;;;-0.01;48.17;96938.38;5029335;28;20484;-56
2022/03/19 05:51:21;;;;;;;31.23;15.20;;;0.40;61.20;;;0.02;48.17;96936.59;5030923;28;20457;-59
2022/03/19 05:53:48;;;;;;;32.67;15.60;;;0.40;61.00;;;0.07;48.40;96932.25;5035637;28;20480;-55
2022/03/19 05:56:17;;;;;;;31.13;14.73;;;0.40;61.00;;;0.17;47.97;96931.19;5028833;28;20558;-56
2022/03/19 05:58:45;;;;;;;34.00;17.70;;;0.50;61.00;;;0.27;48.26;96937.94;5028467;28;20469;-56
2022/03/19 06:01:14;;;;;;;49.50;19.10;;;0.60;61.10;;;0.39;47.67;96936.00;5029806;28;21008;-57
2022/03/19 06:03:41;;;;;;;51.07;23.13;;;0.70;60.90;;;0.53;47.17;96942.66;5034762;28;20998;-58
2022/03/19 06:06:09;;;;;;;51.97;23.90;;;0.80;60.60;;;0.69;47.65;96942.38;5036894;28;20867;-57
2022/03/19 06:08:36;;;;;;;44.43;24.07;;;1.00;60.60;;;0.87;47.46;96936.84;5024439;28;20484;-57
2022/03/19 06:11:03;;;;;;;68.27;30.37;;;1.10;59.90;;;1.06;46.88;96939.94;5031689;28;20464;-55
2022/03/19 06:13:31;;;;;;;65.17;28.33;;;1.30;59.40;;;1.25;46.33;96944.72;5036542;28;20484;-57
2022/03/19 06:15:58;;;;;;;52.37;21.53;;;1.50;58.80;;;1.41;45.24;96935.75;5026693;28;20693;-56
2022/03/19 06:18:27;;;;;;;35.80;18.40;;;1.70;57.70;;;1.59;45.28;96933.66;5033127;28;20856;-57
2022/03/19 06:20:56;;;;;;;19.10;11.17;;;1.80;57.40;;;1.76;44.30;96931.50;5025337;28;20449;-56
2022/03/19 06:23:23;;;;;;;23.83;11.83;;;2.00;56.50;;;1.92;43.86;96937.22;5026926;28;20471;-57
2022/03/19 06:25:50;;;;;;;20.80;9.77;;;2.20;55.90;;;2.07;43.93;96933.41;5033109;28;20546;-57
2022/03/19 06:28:17;;;;;;;20.47;9.33;;;2.30;55.40;;;2.26;43.61;96939.00;5031307;28;20495;-57
2022/03/19 06:30:45;;;;;;;15.00;9.13;;;2.50;54.90;;;2.45;44.54;96925.56;5024048;28;20461;-56
2022/03/19 06:33:12;;;;;;;16.27;10.00;;;2.70;54.70;;;2.65;42.76;96930.22;5026557;28;20538;-57
2022/03/19 06:38:29;;;;;;;16.83;9.20;;;3.00;53.80;;;3.11;42.65;96931.56;5034951;28;20490;-57
2022/03/19 06:40:58;;;;;;;14.77;10.20;;;3.30;53.20;;;3.35;42.60;96935.22;5027523;28;20453;-56
2022/03/19 06:43:25;;;;;;;17.50;9.63;;;3.50;52.90;;;3.61;41.49;96933.63;5025492;28;20483;-56
2022/03/19 06:45:54;;;;;;;21.93;9.90;;;3.80;52.10;;;3.86;41.82;96938.06;5032404;28;20528;-56
2022/03/19 06:48:22;;;;;;;18.13;10.00;;;4.00;52.00;;;4.12;41.69;96942.44;5032187;28;20530;-57
2022/03/19 06:50:53;;;;;;;16.23;9.17;;;4.20;51.90;;;4.40;41.04;96937.19;5028231;28;20453;-56
2022/03/19 06:53:21;;;;;;;16.97;10.70;;;4.50;51.20;;;4.67;40.65;96935.41;5031380;28;20465;-57
2022/03/19 06:55:48;;;;;;;12.23;9.23;;;4.80;50.40;;;4.98;39.77;96929.13;5036284;28;20456;-57
2022/03/19 06:58:15;;;;;;;14.47;9.07;;;5.10;49.80;;;5.31;39.74;96925.34;5038372;28;20463;-57
2022/03/19 07:00:43;;;;;;;19.40;11.23;;;5.40;49.10;;;5.64;39.40;96920.63;5028603;28;20456;-59
2022/03/19 07:03:10;;;;;;;20.00;10.53;;;5.70;48.90;;;5.89;39.49;96922.28;5030234;28;20469;-57
2022/03/19 07:05:38;;;;;;;12.83;9.80;;;5.90;49.50;;;6.13;39.08;96922.25;5034765;28;20451;-59
2022/03/19 07:08:08;;;;;;;18.37;10.33;;;6.10;49.70;;;6.28;38.66;96925.09;5037567;28;20971;-57
2022/03/19 07:10:35;;;;;;;37.80;17.73;;;6.30;48.20;;;6.45;38.11;96921.78;5031616;28;20480;-57
2022/03/19 07:13:02;;;;;;;40.23;13.80;;;6.40;47.60;;;6.57;38.22;96919.59;5022960;28;20503;-56
2022/03/19 07:15:30;;;;;;;24.90;11.87;;;6.60;48.00;;;6.61;37.51;96921.13;5030866;28;20468;-58
2022/03/19 07:17:58;;;;;;;14.67;9.50;;;6.60;47.30;;;6.67;37.51;96913.03;5035946;28;20556;-56
2022/03/19 07:20:25;;;;;;;14.90;9.20;;;6.70;47.10;;;6.74;37.71;96904.03;5037181;28;20451;-57
2022/03/19 07:22:54;;;;;;;19.47;10.27;;;6.70;46.80;;;6.94;37.51;96912.75;5025009;28;20584;-57
2022/03/19 07:25:24;;;;;;;18.43;9.90;;;6.80;46.50;;;7.33;36.27;96914.53;5032180;28;20455;-56
2022/03/19 07:27:51;;;;;;;21.07;9.83;;;7.10;45.50;;;7.88;36.91;96913.75;5035200;28;20476;-58
2022/03/19 07:30:19;;;;;;;19.13;10.10;;;7.70;47.00;;;8.60;36.46;96909.44;5038175;28;20449;-57
2022/03/19 07:32:46;;;;;;;14.73;10.13;;;8.30;46.50;;;9.34;35.09;96902.97;5028877;28;20484;-56
2022/03/19 07:35:14;;;;;;;14.27;9.90;;;9.00;44.40;;;10.03;35.17;96908.88;5031121;28;21000;-56
2022/03/19 07:37:41;;;;;;;14.60;9.83;;;9.70;44.30;;;10.68;34.89;96907.84;5034588;28;20578;-59
2022/03/19 07:40:10;;;;;;;26.43;11.50;;;10.40;43.50;;;11.33;34.04;96906.63;5035470;28;20587;-56
2022/03/19 07:42:38;;;;;;;13.70;9.60;;;11.00;42.50;;;11.98;33.75;96906.09;5025742;28;21090;-57
2022/03/19 07:45:06;;;;;;;19.07;9.40;;;11.60;42.40;;;12.65;33.22;96900.00;5027000;28;20487;-58
2022/03/19 07:47:34;;;;;;;14.83;9.97;;;12.30;42.30;;;13.34;31.63;96905.03;5034988;28;20476;-58
2022/03/19 07:50:01;;;;;;;17.87;9.27;;;13.10;39.80;;;13.95;30.90;96892.75;5036014;28;20465;-62
2022/03/19 07:52:29;;;;;;;17.87;9.93;;;13.80;38.90;;;14.53;31.14;96897.38;5033207;28;20532;-61
2022/03/19 07:54:56;;;;;;;21.10;10.37;;;14.50;39.00;;;15.04;30.42;96897.09;5028574;28;21331;-58
2022/03/19 07:57:23;;;;;;;15.87;10.00;;;15.10;38.10;;;15.49;28.75;96896.31;5032977;28;20488;-58
2022/03/19 07:59:52;;;;;;;16.37;9.40;;;15.70;35.30;;;15.86;29.03;96900.53;5035503;28;20458;-58
2022/03/19 08:02:21;;;;;;;21.83;10.80;;;16.10;36.30;;;16.26;28.30;96902.63;5036498;28;20532;-57
2022/03/19 08:04:48;;;;;;;12.00;8.80;;;16.50;35.60;;;16.65;27.69;96892.34;5028109;28;20872;-57
2022/03/19 08:07:15;;;;;;;25.90;13.50;;;16.80;34.00;;;16.96;27.38;96890.69;5030532;28;20451;-58
2022/03/19 08:09:43;;;;;;;19.57;10.30;;;17.20;33.20;;;17.17;26.81;96893.31;5028932;28;20514;-59
2022/03/19 08:12:11;;;;;;;18.33;11.13;;;17.40;33.10;;;17.42;26.39;96893.03;5038843;28;21071;-59
2022/03/19 08:14:38;;;;;;;19.23;10.63;;;17.60;32.60;;;17.59;26.20;96892.41;5026763;28;20456;-58
2022/03/19 08:17:07;;;;;;;15.53;10.47;;;17.80;31.50;;;17.71;25.95;96890.50;5031269;28;20912;-58
2022/03/19 08:19:34;;;;;;;13.77;11.10;;;17.90;31.40;;;17.79;25.75;96887.16;5037131;28;20456;-59
2022/03/19 08:22:02;;;;;;;17.37;11.73;;;18.00;31.00;;;17.95;25.09;96889.34;5042025;28;20452;-58
2022/03/19 08:24:29;;;;;;;20.13;12.40;;;18.20;30.00;;;17.95;24.09;96892.00;5027721;28;20468;-59
2022/03/19 08:26:56;;;;;;;19.40;13.50;;;18.20;29.50;;;17.79;24.16;96887.16;5032985;28;21004;-58
2022/03/19 08:29:25;;;;;;;22.30;11.20;;;18.10;29.50;;;17.44;25.20;96878.59;5038597;28;20910;-56
2022/03/19 08:31:54;;;;;;;17.67;10.80;;;17.80;30.40;;;17.13;24.97;96881.22;5041894;28;20456;-57
2022/03/19 08:34:23;;;;;;;16.30;13.40;;;17.50;30.10;;;16.79;25.98;96884.09;5038254;28;20610;-57
2022/03/19 08:36:52;;;;;;;18.37;11.93;;;17.20;31.30;;;16.61;25.13;96869.69;5031709;28;20551;-57
2022/03/19 08:42:04;;;;;;;20.60;11.07;;;16.60;27.40;;;16.07;25.67;96874.09;5037613;28;20431;-56
2022/03/19 08:44:32;;;;;;;19.97;10.67;;;16.40;30.00;;;15.97;26.33;96873.97;5025581;28;20480;-57
2022/03/19 08:46:59;;;;;;;17.87;11.43;;;16.10;32.10;;;15.84;25.26;96867.97;5024002;28;20464;-56
2022/03/19 08:49:28;;;;;;;14.23;11.27;;;15.90;30.50;;;15.63;26.34;96866.06;5029527;28;20843;-57
2022/03/19 08:51:56;;;;;;;21.03;12.47;;;15.70;31.20;;;15.51;26.06;96857.25;5028545;28;20969;-57
2022/03/19 08:54:23;;;;;;;17.90;10.53;;;15.50;30.40;;;15.43;24.76;96854.38;5031995;28;20467;-58
2022/03/19 08:56:51;;;;;;;13.20;9.80;;;15.40;30.30;;;15.28;25.79;96852.91;5024533;28;20523;-57
2022/03/19 08:59:20;;;;;;;17.10;10.80;;;15.20;31.10;;;15.17;26.55;96857.25;5031651;28;20480;-55
2022/03/19 09:01:49;;;;;;;22.47;11.10;;;15.10;31.30;;;14.99;26.64;96848.91;5026963;28;20812;-57
2022/03/19 09:04:17;;;;;;;29.97;12.93;;;14.90;31.40;;;14.88;26.23;96846.22;5035423;28;20471;-57
2022/03/19 09:06:46;;;;;;;13.97;10.57;;;14.80;30.50;;;14.84;26.43;96844.78;5025658;28;20451;-57
2022/03/19 09:09:16;;;;;;;21.03;11.60;;;14.80;31.10;;;14.80;26.76;96843.34;5029309;28;21015;-57
2022/03/19 09:11:44;;;;;;;18.40;11.40;;;14.70;31.90;;;14.68;26.58;96840.63;5026733;28;20467;-58
2022/03/19 09:14:12;;;;;;;16.40;11.23;;;14.60;32.00;;;14.63;26.53;96845.44;5032239;28;20504;-58
2022/03/19 09:16:41;;;;;;;15.73;11.20;;;14.50;31.60;;;14.50;26.10;96836.69;5028937;28;20523;-58
2022/03/19 09:19:09;;;;;;;14.70;10.40;;;14.50;30.80;;;14.22;26.22;96833.50;5028974;28;20465;-57
2022/03/19 09:21:36;;;;;;;13.73;10.50;;;14.20;31.10;;;14.05;26.42;96842.69;5031637;28;21026;-58
2022/03/19 09:24:06;;;;;;;13.33;8.50;;;14.00;31.20;;;13.88;25.75;96841.25;5031809;28;20480;-58
2022/03/19 09:26:33;;;;;;;14.63;10.17;;;13.80;31.60;;;13.56;26.41;96844.41;5035116;28;20464;-57
2022/03/19 09:29:01;;;;;;;11.43;9.10;;;13.60;30.30;;;13.43;26.77;96848.88;5027535;28;20467;-58
2022/03/19 09:31:28;;;;;;;20.83;9.80;;;13.40;31.70;;;13.24;25.39;96846.66;5029355;28;20460;-58
2022/03/19 09:33:55;;;;;;;10.13;9.03;;;13.20;30.00;;;13.02;26.07;96837.59;5034244;28;20824;-58
2022/03/19 09:36:24;;;;;;;10.40;8.60;;;13.00;30.90;;;12.70;26.05;96821.31;5034004;28;20453;-59
2022/03/19 09:38:51;;;;;;;15.63;9.90;;;12.70;30.70;;;12.40;26.05;96833.00;5028520;28;20540;-59
2022/03/19 09:41:20;;;;;;;15.73;9.70;;;12.40;30.20;;;12.19;26.78;96840.53;5030687;28;20902;-57
2022/03/19 09:43:47;;;;;;;13.33;8.97;;;12.20;30.90;;;11.84;26.26;96839.22;5029917;28;20476;-58
2022/03/19 09:46:14;;;;;;;30.27;8.53;;;11.90;30.60;;;11.56;26.82;96834.88;5037331;28;21023;-57
2022/03/19 09:48:42;;;;;;;12.37;9.50;;;11.60;30.90;;;11.50;26.97;96832.63;5025141;28;20479;-57
2022/03/19 09:51:09;;;;;;;27.90;10.53;;;11.50;31.10;;;11.47;25.39;96825.75;5031741;28;20878;-59
2022/03/19 09:53:37;;;;;;;8.50;7.23;;;11.40;30.20;;;11.45;25.00;96827.66;5027946;28;20507;-59
2022/03/19 09:56:04;;;;;;;16.77;7.60;;;11.40;29.50;;;11.43;26.22;96836.59;5032023;28;20452;-59
2022/03/19 09:58:33;;;;;;;17.73;8.13;;;11.30;30.60;;;11.38;26.63;96831.59;5028104;28;20591;-57
2022/03/19 10:01:04;;;;;;;12.40;7.30;;;11.30;30.80;;;11.43;26.30;96840.09;5025603;28;20449;-59
2022/03/19 10:03:33;;;;;;;8.60;7.67;;;11.30;30.80;;;11.43;24.81;96823.41;5027434;28;21078;-57
2022/03/19 10:08:56;;;;;;;10.00;7.87;;;11.40;30.10;;;11.27;26.11;96824.38;5032989;28;20983;-58
2022/03/19 10:11:25;;;;;;;8.97;7.53;;;11.30;30.60;;;11.13;25.99;96830.50;5022001;28;20433;-60
2022/03/19 10:13:54;;;;;;;10.63;8.13;;;11.20;30.20;;;10.94;26.41;96814.16;5029783;28;20489;-59
2022/03/19 10:16:23;;;;;;;15.20;8.30;;;11.00;30.50;;;10.84;26.94;96823.53;5027249;28;20510;-60
2022/03/19 10:18:55;;;;;;;11.57;9.50;;;10.90;30.90;;;10.81;26.28;96821.94;5026965;28;20500;-58
2022/03/19 10:21:23;;;;;;;13.30;9.40;;;10.80;30.30;;;10.72;26.26;96833.88;5028119;28;20451;-58
2022/03/19 10:23:50;;;;;;;9.47;7.27;;;10.80;29.80;;;10.76;26.56;96829.25;5028015;28;20476;-57
2022/03/19 10:26:28;;;;;;;10.17;6.90;;;10.80;30.30;;;10.75;26.16;96828.44;5028303;28;20452;-59
2022/03/19 10:29:00;;;;;;;12.67;6.70;;;10.70;30.20;;;10.71;26.10;96837.44;5033111;28;20472;-59